Time;durP1;ratioP1;P1;durP2;ratioP2;P2;SDS_P1;SDS_P2;PMS_P1;PMS_P2;Temp;Humidity;BMP_temperature;BMP_pressure;BME280_temperature;BME280_humidity;BME280_pressure;Samples;Min_cycle;Max_cycle;Signal;HPM_P1;HPM_P2
2023/11/13 00:01:01;;;;;;;;;;;;;;;25.08;44.28;93929.16;4885375;29;9262;-61
2023/11/13 00:03:37;;;;;;;;;;;;;;;25.08;43.44;93932.66;4888718;29;7368;-61
2023/11/13 00:06:22;;;;;;;;;;;;;;;25.09;43.28;93947.19;4879315;29;9116;-61
2023/11/13 00:09:29;;;;;;;;;;;;;;;25.09;44.36;93944.44;4879666;29;9126;-61
2023/11/13 00:11:55;;;;;;;;;;;;;;;25.09;44.02;93942.44;4940847;28;9449;-64
2023/11/13 00:14:22;;;;;;;;;;;;;;;25.09;43.76;93936.94;4973063;28;9413;-64
2023/11/13 00:17:10;;;;;;;;;;;;;;;25.11;43.52;93934.41;4953828;28;6982;-64
2023/11/13 00:20:05;;;;;;;;;;;;;;;25.11;43.17;93919.88;4966869;28;8655;-64
2023/11/13 00:22:48;;;;;;;;;;;;;;;25.09;43.83;93920.41;4957079;28;7160;-64
2023/11/13 00:25:23;;;;;;;;;;;;;;;25.10;44.09;93921.16;4975815;28;7256;-64
2023/11/13 00:27:58;;;;;;;;;;;;;;;25.09;43.83;93909.41;4958249;28;9013;-64
2023/11/13 00:30:26;;;;;;;;;;;;;;;25.10;43.49;93910.16;4957725;28;7062;-64
2023/11/13 00:32:53;;;;;;;;;;;;;;;25.09;44.08;93903.91;4940831;28;7237;-65
2023/11/13 00:35:25;;;;;;;;;;;;;;;25.08;43.92;93896.16;4971666;28;7422;-64
2023/11/13 00:38:21;;;;;;;;;;;;;;;25.09;43.33;93901.16;5017233;28;9102;-64
2023/11/13 00:40:49;;;;;;;;;;;;;;;25.09;43.25;93900.41;4967373;28;7294;-64
2023/11/13 00:43:17;;;;;;;;;;;;;;;25.08;43.03;93894.16;4970545;28;7409;-64
2023/11/13 00:45:43;;;;;;;;;;;;;;;25.09;43.09;93894.91;4970566;28;8879;-64
2023/11/13 00:48:09;;;;;;;;;;;;;;;25.09;43.52;93889.41;4988442;28;7299;-64
2023/11/13 00:51:09;;;;;;;;;;;;;;;25.09;43.93;93903.16;4993518;28;7190;-64
2023/11/13 00:54:07;;;;;;;;;;;;;;;25.09;43.43;93917.66;4915908;29;7242;-64
2023/11/13 00:56:52;;;;;;;;;;;;;;;25.09;43.55;93919.66;4907087;29;7392;-64
2023/11/13 00:59:19;;;;;;;;;;;;;;;25.06;43.62;93923.44;4901584;29;7613;-64
2023/11/13 01:02:01;;;;;;;;;;;;;;;25.06;43.37;93910.44;4913713;29;8959;-64
2023/11/13 01:04:37;;;;;;;;;;;;;;;25.08;43.29;93910.66;4906178;29;8766;-64
2023/11/13 01:07:23;;;;;;;;;;;;;;;25.09;42.96;93900.41;4913905;29;8802;-64
2023/11/13 01:09:51;;;;;;;;;;;;;;;25.08;43.68;93887.88;4919265;29;6986;-64
2023/11/13 01:15:49;;;;;;;;;;;;;;;25.07;43.00;93883.66;4872480;29;7469;-65
2023/11/13 01:18:40;;;;;;;;;;;;;;;25.07;43.57;93897.44;4894738;29;9120;-64
2023/11/13 01:21:07;;;;;;;;;;;;;;;25.04;43.77;93903.94;4893785;29;7175;-65
2023/11/13 01:23:51;;;;;;;;;;;;;;;25.05;43.88;93902.72;4879718;29;6990;-61
2023/11/13 01:26:36;;;;;;;;;;;;;;;25.06;42.95;93928.94;4904432;29;7962;-61
2023/11/13 01:29:13;;;;;;;;;;;;;;;25.06;43.61;93928.94;4902684;28;7023;-61
2023/11/13 01:31:39;;;;;;;;;;;;;;;25.03;43.25;93914.25;4971355;28;8416;-61
2023/11/13 01:34:26;;;;;;;;;;;;;;;25.05;42.79;93919.97;4973110;28;6994;-61
2023/11/13 01:37:31;;;;;;;;;;;;;;;25.04;42.99;93910.22;4971684;28;7918;-61
2023/11/13 01:39:59;;;;;;;;;;;;;;;25.07;42.87;93920.19;4871217;29;9064;-61
2023/11/13 01:42:26;;;;;;;;;;;;;;;25.07;43.57;93917.44;4869740;29;7236;-60
2023/11/13 01:44:55;;;;;;;;;;;;;;;25.05;43.37;93913.72;4872943;29;7269;-60
2023/11/13 01:47:25;;;;;;;;;;;;;;;25.06;43.23;93932.44;4884990;29;6953;-61
2023/11/13 01:49:53;;;;;;;;;;;;;;;25.06;43.21;93923.44;4890238;29;7005;-60
2023/11/13 01:52:31;;;;;;;;;;;;;;;25.05;43.25;93927.47;4908190;28;8802;-61
2023/11/13 01:55:29;;;;;;;;;;;;;;;25.07;43.51;93946.97;4955937;28;8164;-61
2023/11/13 01:58:17;;;;;;;;;;;;;;;25.06;42.89;93940.69;4879886;29;7146;-61
2023/11/13 02:01:13;;;;;;;;;;;;;;;25.07;42.75;93942.19;4888708;29;9097;-60
2023/11/13 02:03:52;;;;;;;;;;;;;;;25.06;43.31;93945.44;4871557;29;7893;-60
2023/11/13 02:06:28;;;;;;;;;;;;;;;25.05;43.34;93946.72;4876841;29;9287;-61
2023/11/13 02:09:12;;;;;;;;;;;;;;;25.06;43.47;93932.44;4871640;29;7241;-60
2023/11/13 02:11:39;;;;;;;;;;;;;;;25.06;43.12;93939.94;4879241;29;7397;-60
2023/11/13 02:14:05;;;;;;;;;;;;;;;25.08;43.63;93943.69;4888781;29;7232;-61
2023/11/13 02:16:41;;;;;;;;;;;;;;;25.07;43.67;93917.44;4910904;29;8763;-61
2023/11/13 02:19:15;;;;;;;;;;;;;;;25.07;43.35;93916.69;4893046;29;7384;-61
2023/11/13 02:21:50;;;;;;;;;;;;;;;25.06;42.87;93912.44;4917021;29;8766;-60
2023/11/13 02:24:20;;;;;;;;;;;;;;;25.08;43.68;93918.16;4908268;29;8752;-61
2023/11/13 02:26:55;;;;;;;;;;;;;;;25.07;43.17;93913.94;4896889;29;8196;-61
2023/11/13 02:29:26;;;;;;;;;;;;;;;25.09;42.54;93912.16;4896566;29;9414;-61
2023/11/13 02:32:39;;;;;;;;;;;;;;;25.10;42.63;93910.16;4897858;29;7277;-58
2023/11/13 02:35:10;;;;;;;;;;;;;;;25.07;43.22;93902.94;4885765;29;7846;-57
2023/11/13 02:37:58;;;;;;;;;;;;;;;25.09;42.49;93908.66;4882150;29;8764;-58
2023/11/13 02:40:26;;;;;;;;;;;;;;;25.07;42.57;93889.16;4920127;28;7211;-58
2023/11/13 02:42:53;;;;;;;;;;;;;;;25.06;43.48;93893.91;4955793;28;9257;-58
2023/11/13 02:45:23;;;;;;;;;;;;;;;25.05;42.97;93883.44;4947002;28;8438;-58
2023/11/13 02:47:51;;;;;;;;;;;;;;;25.06;42.99;93895.91;4950268;28;6988;-58
2023/11/13 02:50:48;;;;;;;;;;;;;;;25.07;42.95;93891.94;4943616;28;7082;-58
2023/11/13 02:53:21;;;;;;;;;;;;;;;25.06;42.58;93898.69;4939509;28;9085;-58
2023/11/13 02:56:37;;;;;;;;;;;;;;;25.06;42.52;93896.69;4955635;28;7220;-58
2023/11/13 02:59:06;;;;;;;;;;;;;;;25.06;43.28;93896.69;4873889;29;8863;-58
2023/11/13 03:01:34;;;;;;;;;;;;;;;25.04;43.33;93901.19;4885934;29;7214;-58
2023/11/13 03:04:02;;;;;;;;;;;;;;;25.05;43.48;93899.97;4882569;29;7103;-58
2023/11/13 03:06:29;;;;;;;;;;;;;;;25.06;43.06;93906.94;4893537;29;6970;-58
2023/11/13 03:08:57;;;;;;;;;;;;;;;25.05;43.49;93899.97;4907550;29;9431;-58
2023/11/13 03:11:25;;;;;;;;;;;;;;;25.07;42.45;93897.44;4918425;28;7072;-58
2023/11/13 03:14:20;;;;;;;;;;;;;;;25.06;42.54;93893.16;4949812;28;7091;-58
2023/11/13 03:17:03;;;;;;;;;;;;;;;25.06;42.73;93887.66;4932816;28;7095;-58
2023/11/13 03:19:29;;;;;;;;;;;;;;;25.06;43.45;93890.41;4923205;28;8950;-57
2023/11/13 03:21:55;;;;;;;;;;;;;;;25.06;43.30;93893.16;4934045;28;6948;-58
2023/11/13 03:24:22;;;;;;;;;;;;;;;25.04;43.28;93901.19;4947590;28;7218;-57
2023/11/13 03:26:48;;;;;;;;;;;;;;;25.04;43.38;93912.97;4935201;28;7388;-58
2023/11/13 03:29:17;;;;;;;;;;;;;;;25.05;42.90;93910.97;4945510;28;9446;-58
2023/11/13 03:31:55;;;;;;;;;;;;;;;25.05;42.82;93905.47;4922497;28;7001;-58
2023/11/13 03:35:06;;;;;;;;;;;;;;;25.05;42.42;93911.72;4935527;28;7437;-58
2023/11/13 03:38:01;;;;;;;;;;;;;;;25.05;42.49;93888.94;4973038;28;8771;-58
2023/11/13 03:41:08;;;;;;;;;;;;;;;25.03;42.53;93875.72;4879371;29;7187;-58
2023/11/13 03:43:44;;;;;;;;;;;;;;;25.04;43.09;93879.19;4885980;29;7021;-59
2023/11/13 03:46:30;;;;;;;;;;;;;;;25.03;42.88;93894.97;4896281;29;8651;-59
2023/11/13 03:49:00;;;;;;;;;;;;;;;25.05;42.91;93895.19;4893971;29;7036;-59
2023/11/13 03:51:28;;;;;;;;;;;;;;;25.05;42.50;93886.19;4897554;29;7481;-59
2023/11/13 03:54:10;;;;;;;;;;;;;;;25.05;43.06;93886.94;4902925;28;7282;-59
2023/11/13 03:56:45;;;;;;;;;;;;;;;25.03;42.30;93877.72;4921377;29;9264;-59
2023/11/13 03:59:26;;;;;;;;;;;;;;;25.00;43.09;93879.50;4928459;29;9338;-59
2023/11/13 04:02:22;;;;;;;;;;;;;;;25.04;42.69;93887.44;4923717;29;7290;-59
2023/11/13 04:04:49;;;;;;;;;;;;;;;25.04;42.71;93879.19;4862855;29;7231;-59
2023/11/13 04:07:20;;;;;;;;;;;;;;;25.04;43.30;93884.69;4877102;29;7508;-59
2023/11/13 04:09:55;;;;;;;;;;;;;;;25.03;42.48;93888.72;4862066;29;7454;-59
2023/11/13 04:12:21;;;;;;;;;;;;;;;25.04;43.22;93903.94;4866144;29;7231;-59
2023/11/13 04:14:49;;;;;;;;;;;;;;;25.04;42.86;93898.44;4885410;29;6900;-59
2023/11/13 04:17:19;;;;;;;;;;;;;;;25.04;42.73;93899.22;4935706;28;8217;-59
2023/11/13 04:19:45;;;;;;;;;;;;;;;25.06;42.65;93898.69;4962647;28;6976;-59
2023/11/13 04:22:21;;;;;;;;;;;;;;;25.03;43.25;93891.47;4969040;28;7109;-59
2023/11/13 04:25:11;;;;;;;;;;;;;;;25.03;43.06;93891.47;4959003;28;7110;-60
2023/11/13 04:27:57;;;;;;;;;;;;;;;25.05;42.61;93888.94;4955310;28;7035;-59
2023/11/13 04:30:52;;;;;;;;;;;;;;;25.04;42.23;93884.69;4939996;28;8782;-59
2023/11/13 04:33:50;;;;;;;;;;;;;;;25.06;43.05;93876.66;4928081;29;8500;-59
2023/11/13 04:36:16;;;;;;;;;;;;;;;25.05;42.97;93875.19;4911069;29;7633;-59
2023/11/13 04:38:48;;;;;;;;;;;;;;;25.03;42.93;93861.97;4898686;29;7245;-59
2023/11/13 04:41:52;;;;;;;;;;;;;;;25.06;43.14;93877.41;4927713;29;9123;-59
2023/11/13 04:44:28;;;;;;;;;;;;;;;25.06;42.41;93874.66;4910847;29;7856;-59
2023/11/13 04:47:06;;;;;;;;;;;;;;;25.04;43.15;93876.44;4931716;29;6994;-59
2023/11/13 04:49:42;;;;;;;;;;;;;;;25.03;42.64;93888.72;4911020;29;8220;-60
2023/11/13 04:52:18;;;;;;;;;;;;;;;25.05;42.63;93888.94;4925786;29;8356;-64
2023/11/13 04:54:58;;;;;;;;;;;;;;;25.05;42.49;93900.69;4931765;29;8829;-64
2023/11/13 04:58:02;;;;;;;;;;;;;;;25.05;43.22;93894.44;4933009;29;7233;-65
2023/11/13 05:01:03;;;;;;;;;;;;;;;25.04;42.98;93904.72;4928306;29;7201;-64
2023/11/13 05:03:40;;;;;;;;;;;;;;;25.04;42.52;93892.94;4894015;29;7262;-64
2023/11/13 05:06:20;;;;;;;;;;;;;;;25.04;42.60;93885.44;4895712;29;7306;-64
2023/11/13 05:08:54;;;;;;;;;;;;;;;25.02;42.31;93881.72;4890712;29;7314;-64
2023/11/13 05:11:41;;;;;;;;;;;;;;;25.04;42.54;93892.94;4901187;29;7336;-64
2023/11/13 05:14:16;;;;;;;;;;;;;;;25.05;42.59;93888.94;4954150;28;8755;-64
2023/11/13 05:17:02;;;;;;;;;;;;;;;25.05;42.67;93894.44;4928175;29;7113;-64
2023/11/13 05:19:41;;;;;;;;;;;;;;;25.04;42.19;93890.94;4958973;28;7301;-64
2023/11/13 05:22:08;;;;;;;;;;;;;;;25.03;42.05;93897.72;4927825;29;9185;-64
2023/11/13 05:25:23;;;;;;;;;;;;;;;25.03;43.16;93891.47;4942723;29;7252;-64
2023/11/13 05:28:08;;;;;;;;;;;;;;;25.03;43.13;93896.97;4934312;29;6987;-65
2023/11/13 05:30:53;;;;;;;;;;;;;;;25.02;43.03;93909.22;4934437;29;7057;-65
2023/11/13 05:33:20;;;;;;;;;;;;;;;25.03;43.08;93908.72;4920534;29;7183;-65
2023/11/13 05:35:54;;;;;;;;;;;;;;;25.02;43.01;93911.97;4937337;29;8944;-65
2023/11/13 05:38:30;;;;;;;;;;;;;;;25.01;42.34;93919.50;5011109;28;7232;-65
2023/11/13 05:41:14;;;;;;;;;;;;;;;25.02;42.30;93920.25;5049659;28;7259;-65
2023/11/13 05:47:29;;;;;;;;;;;;;;;25.00;42.46;93909.00;4992090;28;7265;-65
2023/11/13 05:50:48;;;;;;;;;;;;;;;25.02;43.41;93920.25;4985407;28;8789;-65
2023/11/13 05:53:30;;;;;;;;;;;;;;;25.03;43.14;93914.25;4934492;29;8754;-64
2023/11/13 05:56:29;;;;;;;;;;;;;;;25.06;42.87;93921.44;4935828;29;9106;-65
2023/11/13 05:59:04;;;;;;;;;;;;;;;25.07;43.62;93924.94;4858297;29;9028;-65
2023/11/13 06:01:41;;;;;;;;;;;;;;;25.09;42.77;93927.91;4877062;29;7189;-61
2023/11/13 06:04:19;;;;;;;;;;;;;;;25.15;43.22;93939.59;4857414;29;6947;-60
2023/11/13 06:06:47;;;;;;;;;;;;;;;25.18;42.97;93946.81;4849707;29;7443;-60
2023/11/13 06:09:28;;;;;;;;;;;;;;;25.23;42.76;93949.50;4863585;29;7257;-60
2023/11/13 06:12:26;;;;;;;;;;;;;;;25.27;42.91;93954.72;4881809;29;7220;-60
2023/11/13 06:15:16;;;;;;;;;;;;;;;25.29;42.63;93957.72;4861755;29;8982;-61
2023/11/13 06:18:11;;;;;;;;;;;;;;;25.30;43.20;93953.69;4864772;29;7063;-60
2023/11/13 06:20:48;;;;;;;;;;;;;;;25.26;43.06;93944.97;4828953;29;7270;-61
2023/11/13 06:23:26;;;;;;;;;;;;;;;25.26;42.85;93944.97;4851979;29;9000;-61
2023/11/13 06:25:53;;;;;;;;;;;;;;;25.25;42.36;93962.75;4871838;29;8997;-61
2023/11/13 06:28:28;;;;;;;;;;;;;;;25.27;43.02;93955.47;4875655;29;8816;-60
2023/11/13 06:31:12;;;;;;;;;;;;;;;25.33;42.80;93952.66;4915245;29;7271;-62
2023/11/13 06:33:38;;;;;;;;;;;;;;;25.34;42.63;93960.38;4913488;28;7231;-60
2023/11/13 06:36:14;;;;;;;;;;;;;;;25.35;42.58;93950.13;4955366;28;8914;-60
2023/11/13 06:38:41;;;;;;;;;;;;;;;25.35;42.84;93955.63;4976389;28;8812;-61
2023/11/13 06:41:07;;;;;;;;;;;;;;;25.37;42.45;93950.34;4965534;28;8900;-60
2023/11/13 06:43:43;;;;;;;;;;;;;;;25.35;42.93;93952.88;4983618;28;7048;-61
2023/11/13 06:46:11;;;;;;;;;;;;;;;25.33;42.37;93939.63;4968572;28;7205;-60
2023/11/13 06:48:42;;;;;;;;;;;;;;;25.34;42.67;93943.88;4972940;28;9195;-60
2023/11/13 06:51:08;;;;;;;;;;;;;;;25.34;41.82;93951.38;4967061;28;9069;-61
2023/11/13 06:53:35;;;;;;;;;;;;;;;25.32;41.88;93960.16;4973476;28;7189;-61
2023/11/13 06:56:02;;;;;;;;;;;;;;;25.33;41.92;93952.66;4978607;28;7167;-61
2023/11/13 06:58:28;;;;;;;;;;;;;;;25.36;41.91;93970.88;5050639;28;9134;-61
2023/11/13 07:01:26;;;;;;;;;;;;;;;25.34;41.89;93990.66;5058744;28;7070;-61
2023/11/13 07:04:04;;;;;;;;;;;;;;;25.30;42.13;93979.19;5009122;28;9059;-61
2023/11/13 07:07:06;;;;;;;;;;;;;;;25.35;42.30;93988.66;4995870;28;9173;-61
2023/11/13 07:09:33;;;;;;;;;;;;;;;25.36;42.42;93984.63;4957274;28;7959;-61
2023/11/13 07:12:08;;;;;;;;;;;;;;;25.34;42.64;93982.41;4945922;28;7860;-62
2023/11/13 07:14:35;;;;;;;;;;;;;;;25.37;42.35;93980.63;4942842;28;8944;-63
2023/11/13 07:17:03;;;;;;;;;;;;;;;25.34;41.79;93981.66;4958499;28;7321;-62
2023/11/13 07:19:39;;;;;;;;;;;;;;;25.32;42.26;93976.69;4958971;28;7254;-63
2023/11/13 07:22:14;;;;;;;;;;;;;;;25.33;41.88;93977.44;4955617;28;7465;-63
2023/11/13 07:25:10;;;;;;;;;;;;;;;25.32;42.53;93982.19;4945817;28;10101;-63
2023/11/13 07:27:45;;;;;;;;;;;;;;;25.32;42.43;93981.44;4918067;29;7331;-63
2023/11/13 07:30:22;;;;;;;;;;;;;;;25.35;42.69;93981.16;4938444;28;9252;-62
2023/11/13 07:32:48;;;;;;;;;;;;;;;25.33;41.70;93991.19;4939345;28;6869;-62
2023/11/13 07:35:15;;;;;;;;;;;;;;;25.32;42.08;93995.19;4936922;28;9418;-62
2023/11/13 07:37:46;;;;;;;;;;;;;;;25.31;42.52;93993.72;4919700;28;8962;-62
2023/11/13 07:40:32;;;;;;;;;;;;;;;25.32;42.25;94014.47;4949388;28;7372;-62
2023/11/13 07:42:58;;;;;;;;;;;;;;;25.34;41.95;94014.69;4967494;28;8973;-62
2023/11/13 07:45:25;;;;;;;;;;;;;;;25.37;41.74;94021.91;5002336;28;7237;-63
2023/11/13 07:47:51;;;;;;;;;;;;;;;25.36;43.10;94025.91;4999755;28;7260;-63
2023/11/13 07:50:17;;;;;;;;;;;;;;;25.34;43.22;94037.47;5010282;28;7638;-63
2023/11/13 07:52:56;;;;;;;;;;;;;;;25.32;42.97;94030.97;4995207;28;8593;-62
2023/11/13 07:55:24;;;;;;;;;;;;;;;25.32;43.13;94034.47;4996123;28;7062;-62
2023/11/13 07:58:17;;;;;;;;;;;;;;;25.29;43.16;94024.50;5000167;28;7058;-62
2023/11/13 08:00:58;;;;;;;;;;;;;;;25.30;42.80;94041.75;4989061;28;8774;-63
2023/11/13 08:03:26;;;;;;;;;;;;;;;25.33;42.68;94049.75;4990482;28;7089;-62
2023/11/13 08:06:03;;;;;;;;;;;;;;;25.32;43.75;94039.22;5034024;28;9004;-62
2023/11/13 08:08:33;;;;;;;;;;;;;;;25.32;42.99;94036.47;5052621;28;7260;-62
2023/11/13 08:11:26;;;;;;;;;;;;;;;25.31;43.07;94032.25;5037113;28;8766;-62
2023/11/13 08:13:53;;;;;;;;;;;;;;;25.28;43.16;94041.53;4937773;28;8930;-63
2023/11/13 08:16:21;;;;;;;;;;;;;;;25.28;43.49;94044.28;4956249;28;7269;-63
2023/11/13 08:19:07;;;;;;;;;;;;;;;25.26;43.22;94042.06;4961055;28;7429;-62
2023/11/13 08:21:35;;;;;;;;;;;;;;;25.29;42.79;94043.03;4956414;28;7271;-51
2023/11/13 08:24:19;;;;;;;;;;;;;;;25.31;43.53;94051.53;4954769;28;7102;-64
2023/11/13 08:26:55;;;;;;;;;;;;;;;25.31;43.18;94057.78;4953616;28;7490;-65
2023/11/13 08:29:32;;;;;;;;;;;;;;;25.32;43.18;94053.00;4957512;28;8893;-65
2023/11/13 08:32:10;;;;;;;;;;;;;;;25.29;43.66;94045.78;4953734;28;9065;-65
2023/11/13 08:35:22;;;;;;;;;;;;;;;25.34;42.85;94053.22;4952197;28;9257;-65
2023/11/13 08:38:04;;;;;;;;;;;;;;;25.34;43.28;94042.22;4877559;29;8967;-65
2023/11/13 08:40:41;;;;;;;;;;;;;;;25.30;43.55;94030.75;4861373;29;7353;-65
2023/11/13 08:43:34;;;;;;;;;;;;;;;25.33;43.26;94047.00;4862163;29;7063;-65
2023/11/13 08:46:35;;;;;;;;;;;;;;;25.35;43.04;94054.72;4882643;29;7157;-65
2023/11/13 08:49:33;;;;;;;;;;;;;;;25.36;43.02;94053.44;4841268;29;7178;-64
2023/11/13 08:52:00;;;;;;;;;;;;;;;25.38;43.63;94053.72;4893963;29;8786;-65
2023/11/13 08:54:57;;;;;;;;;;;;;;;25.37;43.17;94052.22;4906917;29;6988;-65
2023/11/13 08:57:33;;;;;;;;;;;;;;;25.36;42.40;94051.44;4876204;29;7250;-65
2023/11/13 09:00:01;;;;;;;;;;;;;;;25.36;43.20;94056.22;4861308;29;7006;-65
2023/11/13 09:02:36;;;;;;;;;;;;;;;25.36;42.19;94054.22;4875323;29;7038;-65
2023/11/13 09:05:15;;;;;;;;;;;;;;;25.36;42.39;94043.19;4874691;29;7149;-65
2023/11/13 09:07:42;;;;;;;;;;;;;;;25.34;42.24;94045.72;4872063;29;8914;-64
2023/11/13 09:10:11;;;;;;;;;;;;;;;25.33;42.21;94040.75;4867910;29;7257;-66
2023/11/13 09:12:43;;;;;;;;;;;;;;;25.34;43.32;94033.97;4874171;29;7245;-67
2023/11/13 09:15:14;;;;;;;;;;;;;;;25.32;42.40;94030.97;4887265;29;8789;-68
2023/11/13 09:17:54;;;;;;;;;;;;;;;25.30;42.91;94028.75;4873809;29;7212;-67
2023/11/13 09:20:24;;;;;;;;;;;;;;;25.32;42.82;94033.72;4878176;29;7284;-65
2023/11/13 09:23:20;;;;;;;;;;;;;;;25.26;43.39;94022.03;4928221;28;7143;-65
2023/11/13 09:25:47;;;;;;;;;;;;;;;25.21;42.57;94034.59;4928936;29;7254;-65
2023/11/13 09:28:53;;;;;;;;;;;;;;;25.18;43.53;94015.63;4933228;29;8688;-65
2023/11/13 09:31:30;;;;;;;;;;;;;;;25.16;43.44;94016.16;4932969;29;9148;-65
2023/11/13 09:34:16;;;;;;;;;;;;;;;25.13;42.72;93999.91;4935707;29;6965;-58
2023/11/13 09:36:44;;;;;;;;;;;;;;;25.11;43.53;93994.94;4943723;29;7314;-58
2023/11/13 09:39:11;;;;;;;;;;;;;;;25.11;42.85;93996.94;4923523;29;9369;-58
2023/11/13 09:42:17;;;;;;;;;;;;;;;25.10;43.77;94006.47;4934839;29;7231;-58
2023/11/13 09:45:05;;;;;;;;;;;;;;;25.08;42.90;94004.22;4936729;29;9909;-58
2023/11/13 09:47:57;;;;;;;;;;;;;;;25.10;43.10;93998.94;4951963;29;7337;-57
2023/11/13 09:50:44;;;;;;;;;;;;;;;25.10;43.91;94006.47;4931625;29;9468;-57
2023/11/13 09:53:15;;;;;;;;;;;;;;;25.07;43.73;94007.50;4952494;28;7192;-58
2023/11/13 09:55:46;;;;;;;;;;;;;;;25.06;43.49;94006.00;4930928;29;8083;-57
2023/11/13 09:58:32;;;;;;;;;;;;;;;25.07;43.83;94007.50;4943905;29;6989;-58
2023/11/13 10:01:15;;;;;;;;;;;;;;;25.06;43.09;94015.00;4952446;28;7365;-58
2023/11/13 10:03:41;;;;;;;;;;;;;;;25.06;43.23;94006.75;5030698;28;9027;-58
2023/11/13 10:06:35;;;;;;;;;;;;;;;25.05;43.78;93999.75;5048860;28;7158;-58
2023/11/13 10:09:02;;;;;;;;;;;;;;;25.05;43.89;93982.50;5051150;28;7183;-57
2023/11/13 10:11:29;;;;;;;;;;;;;;;25.05;43.03;93963.25;5033503;28;9317;-57
2023/11/13 10:14:18;;;;;;;;;;;;;;;25.07;43.69;93964.22;5035700;28;8981;-57
2023/11/13 10:17:32;;;;;;;;;;;;;;;25.08;42.63;93962.19;5026591;28;7223;-58
2023/11/13 10:20:01;;;;;;;;;;;;;;;25.08;43.24;93956.69;4982393;28;7263;-58
2023/11/13 10:22:27;;;;;;;;;;;;;;;25.08;43.02;93959.44;4973384;28;9157;-58
2023/11/13 10:24:57;;;;;;;;;;;;;;;25.06;43.33;93957.22;4975226;28;9336;-58
2023/11/13 10:27:24;;;;;;;;;;;;;;;25.07;43.40;93946.97;4986123;28;7380;-58
2023/11/13 10:30:06;;;;;;;;;;;;;;;25.06;42.97;93937.94;4990442;28;7136;-58
2023/11/13 10:32:56;;;;;;;;;;;;;;;25.05;42.56;93924.72;4990371;28;7230;-58
2023/11/13 10:35:37;;;;;;;;;;;;;;;25.05;42.75;93928.22;4978589;28;9093;-58
2023/11/13 10:38:21;;;;;;;;;;;;;;;25.06;42.84;93939.94;4982042;28;8261;-58
2023/11/13 10:44:27;;;;;;;;;;;;;;;25.05;43.66;93938.47;4963673;28;9115;-58
2023/11/13 10:46:56;;;;;;;;;;;;;;;25.06;43.16;93917.94;4970349;28;7347;-58
2023/11/13 10:49:25;;;;;;;;;;;;;;;25.05;43.11;93916.47;4950387;28;7005;-58
2023/11/13 10:51:59;;;;;;;;;;;;;;;25.08;43.42;93907.91;4965738;28;7258;-58
2023/11/13 10:54:26;;;;;;;;;;;;;;;25.08;43.21;93887.88;4958848;28;6988;-58
2023/11/13 10:56:54;;;;;;;;;;;;;;;25.11;43.21;93886.88;4963207;28;9418;-58
2023/11/13 10:59:21;;;;;;;;;;;;;;;25.17;42.92;93879.28;4965153;28;7486;-58
2023/11/13 11:01:54;;;;;;;;;;;;;;;25.25;42.82;93877.44;4971633;28;7581;-58
2023/11/13 11:04:22;;;;;;;;;;;;;;;25.28;42.49;93876.38;4964589;28;9182;-58
2023/11/13 11:07:04;;;;;;;;;;;;;;;25.31;43.19;93872.59;4977735;28;7293;-58
2023/11/13 11:09:44;;;;;;;;;;;;;;;25.36;43.15;93880.78;4965694;28;7155;-58
2023/11/13 11:12:11;;;;;;;;;;;;;;;25.37;42.66;93876.00;4981672;28;9146;-58
2023/11/13 11:14:58;;;;;;;;;;;;;;;25.39;42.88;93868.72;4951850;28;9278;-58
2023/11/13 11:17:33;;;;;;;;;;;;;;;25.42;42.36;93864.22;4970115;28;8905;-57
2023/11/13 11:20:10;;;;;;;;;;;;;;;25.43;42.02;93862.94;5000613;28;7394;-58
2023/11/13 11:22:50;;;;;;;;;;;;;;;25.44;42.04;93847.91;5031612;28;9411;-58
2023/11/13 11:26:14;;;;;;;;;;;;;;;25.45;42.83;93840.41;5034950;28;7287;-58
2023/11/13 11:29:29;;;;;;;;;;;;;;;25.47;41.91;93822.06;4975647;28;9639;-58
2023/11/13 11:32:34;;;;;;;;;;;;;;;25.47;42.24;93810.34;4968744;28;7325;-58
2023/11/13 11:35:04;;;;;;;;;;;;;;;25.48;42.68;93826.31;4972685;28;7645;-58
2023/11/13 11:37:31;;;;;;;;;;;;;;;25.48;42.64;93812.56;4985391;28;7312;-58
2023/11/13 11:40:03;;;;;;;;;;;;;;;25.47;42.92;93791.78;4970516;28;7246;-58
2023/11/13 11:42:32;;;;;;;;;;;;;;;25.50;42.77;93790.75;4976625;28;7001;-58
2023/11/13 11:45:01;;;;;;;;;;;;;;;25.51;42.78;93788.75;4980153;28;7132;-58
2023/11/13 11:47:28;;;;;;;;;;;;;;;25.49;42.18;93778.25;4975338;28;7162;-58
2023/11/13 11:50:21;;;;;;;;;;;;;;;25.51;42.13;93797.75;4986444;28;7351;-58
2023/11/13 11:53:13;;;;;;;;;;;;;;;25.52;42.18;93803.97;4975114;28;9323;-59
2023/11/13 11:55:47;;;;;;;;;;;;;;;25.50;42.28;93799.00;4990901;28;7215;-60
2023/11/13 11:58:15;;;;;;;;;;;;;;;25.52;42.59;93806.75;4976201;28;7399;-60
2023/11/13 12:00:48;;;;;;;;;;;;;;;25.53;42.51;93806.22;5034236;28;8171;-60
2023/11/13 12:03:16;;;;;;;;;;;;;;;25.52;42.63;93817.75;5050190;28;7239;-60
2023/11/13 12:05:42;;;;;;;;;;;;;;;25.50;42.20;93823.78;5029895;28;8829;-60
2023/11/13 12:08:11;;;;;;;;;;;;;;;25.52;42.12;93820.50;5054859;28;6972;-60
2023/11/13 12:10:53;;;;;;;;;;;;;;;25.51;42.59;93828.03;5043937;28;8922;-60
2023/11/13 12:17:07;;;;;;;;;;;;;;;25.50;42.11;93843.06;5044725;28;7012;-60
2023/11/13 12:19:50;;;;;;;;;;;;;;;25.51;42.04;93863.09;5039515;28;7226;-60
2023/11/13 12:26:04;;;;;;;;;;;;;;;25.49;42.00;93899.38;5016521;28;7126;-60
2023/11/13 12:29:09;;;;;;;;;;;;;;;25.48;42.03;93900.66;5006554;28;6980;-59
2023/11/13 12:31:53;;;;;;;;;;;;;;;25.46;42.45;93900.44;4988468;28;7248;-60
2023/11/13 12:34:47;;;;;;;;;;;;;;;25.46;42.07;93902.44;5011836;28;7425;-59
2023/11/13 12:37:31;;;;;;;;;;;;;;;25.43;42.79;93902.22;5004719;28;9044;-59
2023/11/13 12:40:03;;;;;;;;;;;;;;;25.36;42.20;93891.78;5006121;28;7023;-60
2023/11/13 12:42:41;;;;;;;;;;;;;;;25.42;43.08;93897.25;5007492;28;7238;-59
2023/11/13 12:45:14;;;;;;;;;;;;;;;25.39;42.86;93896.25;5002295;28;7196;-59
2023/11/13 12:48:11;;;;;;;;;;;;;;;25.40;43.26;93897.00;4999022;28;8280;-59
2023/11/13 12:50:52;;;;;;;;;;;;;;;25.40;43.28;93902.50;5008471;28;7525;-59
2023/11/13 12:53:38;;;;;;;;;;;;;;;25.42;43.02;93903.47;4980819;28;8725;-59
2023/11/13 12:56:07;;;;;;;;;;;;;;;25.42;42.33;93878.69;4994050;28;8968;-59
2023/11/13 12:58:45;;;;;;;;;;;;;;;25.45;43.01;93879.69;5009270;28;7160;-59
2023/11/13 13:01:26;;;;;;;;;;;;;;;25.40;43.65;93858.47;5010238;28;7148;-59
2023/11/13 13:04:38;;;;;;;;;;;;;;;25.42;42.76;93839.44;5048279;28;7402;-62
2023/11/13 13:07:22;;;;;;;;;;;;;;;25.43;43.53;93852.66;4992224;28;8965;-62
2023/11/13 13:09:49;;;;;;;;;;;;;;;25.45;42.73;93843.88;4967585;28;7632;-63
2023/11/13 13:12:32;;;;;;;;;;;;;;;25.45;42.77;93838.38;4973983;28;6982;-63
2023/11/13 13:15:27;;;;;;;;;;;;;;;25.45;42.77;93838.38;4990364;28;7923;-63
2023/11/13 13:18:28;;;;;;;;;;;;;;;25.44;43.42;93823.13;4999653;28;7012;-63
2023/11/13 13:20:55;;;;;;;;;;;;;;;25.45;42.78;93823.88;4913684;29;7151;-62
2023/11/13 13:23:20;;;;;;;;;;;;;;;25.46;43.37;93817.09;4903212;29;7318;-63
2023/11/13 13:25:46;;;;;;;;;;;;;;;25.44;42.50;93828.66;4921112;29;7331;-62
2023/11/13 13:28:13;;;;;;;;;;;;;;;25.42;42.78;93828.44;4914851;29;7025;-62
2023/11/13 13:31:15;;;;;;;;;;;;;;;25.44;43.18;93814.88;4898921;29;9046;-64
2023/11/13 13:33:54;;;;;;;;;;;;;;;25.38;42.94;93816.94;4836104;29;6991;-62
2023/11/13 13:36:56;;;;;;;;;;;;;;;25.43;43.15;93827.16;4848282;29;9174;-62
2023/11/13 13:39:55;;;;;;;;;;;;;;;25.45;42.87;93816.34;4824706;29;7233;-63
2023/11/13 13:42:30;;;;;;;;;;;;;;;25.44;43.59;93814.88;4839874;29;9064;-63
2023/11/13 13:44:56;;;;;;;;;;;;;;;25.44;43.79;93820.38;4874241;29;7246;-62
2023/11/13 13:47:51;;;;;;;;;;;;;;;25.50;43.70;93817.53;4871610;29;9083;-63
2023/11/13 13:50:37;;;;;;;;;;;;;;;25.51;43.24;93805.25;4877212;29;7362;-62
2023/11/13 13:53:05;;;;;;;;;;;;;;;25.52;43.82;93804.72;4874837;29;7485;-62
2023/11/13 13:55:33;;;;;;;;;;;;;;;25.47;43.87;93783.53;4860110;29;7265;-63
2023/11/13 13:58:07;;;;;;;;;;;;;;;25.46;43.92;93779.31;4877073;29;7000;-62
2023/11/13 14:00:34;;;;;;;;;;;;;;;25.47;43.71;93783.53;4893050;29;7041;-63
2023/11/13 14:03:10;;;;;;;;;;;;;;;25.50;43.81;93763.22;4894625;29;9103;-63
2023/11/13 14:06:15;;;;;;;;;;;;;;;25.54;44.45;93773.91;4896145;29;7253;-63
2023/11/13 14:08:44;;;;;;;;;;;;;;;25.54;43.35;93780.16;4916074;28;8997;-63
2023/11/13 14:11:10;;;;;;;;;;;;;;;25.54;44.19;93790.44;4964711;28;7009;-63
2023/11/13 14:13:39;;;;;;;;;;;;;;;25.49;43.87;93794.75;5018896;28;7150;-63
2023/11/13 14:16:18;;;;;;;;;;;;;;;25.52;45.02;93798.47;5054218;28;9092;-63